| time (UTC) | temp F | wind direction | speed knots | gust knots | rain 1hr in | rain 24hr in | rain mn in | humidity % | barometer mb |
| 20260505230048 | 90 | 0.0 | 0.0 | 0.00 | 0.00 | 0.00 | 47 | 1004.5 | |
| 20260505224537 | 92 | 0.0 | 0.0 | 0.00 | 0.00 | 0.00 | 46 | 1004.1 | |
| 20260505223027 | 94 | 0.0 | 0.0 | 0.00 | 0.00 | 0.00 | 46 | 1003.8 | |
| 20260505221526 | 94 | 0.0 | 0.0 | 0.00 | 0.00 | 0.00 | 46 | 1003.5 | |
| 20260505220024 | 94 | 0.0 | 0.0 | 0.00 | 0.00 | 0.00 | 48 | 1003.7 | |
| 20260505214523 | 94 | 0.0 | 0.0 | 0.00 | 0.00 | 0.00 | 48 | 1003.8 | |
| 20260505213021 | 93 | 0.0 | 0.0 | 0.00 | 0.00 | 0.00 | 51 | 1003.9 | |
| 20260505211524 | 93 | 0.0 | 0.0 | 0.00 | 0.00 | 0.00 | 51 | 1004.1 | |
| 20260505210014 | 92 | 0.0 | 0.0 | 0.00 | 0.00 | 0.00 | 52 | 1004.3 | |
| 20260505204512 | 92 | 0.0 | 0.0 | 0.00 | 0.00 | 0.00 | 54 | 1004.5 | |
| 20260505203014 | 92 | 0.0 | 0.0 | 0.00 | 0.00 | 0.00 | 55 | 1004.8 | |
| 20260505201508 | 91 | 0.0 | 0.0 | 0.00 | 0.00 | 0.00 | 56 | 1004.9 | |
| 20260505200006 | 91 | 0.0 | 0.0 | 0.00 | 0.00 | 0.00 | 56 | 1005.1 | |
| 20260505194503 | 90 | 0.0 | 0.0 | 0.00 | 0.00 | 0.00 | 57 | 1005.0 | |
| 20260505193002 | 89 | 0.0 | 0.0 | 0.00 | 0.00 | 0.00 | 60 | 1005.4 | |
| 20260505191608 | 88 | 0.0 | 0.0 | 0.00 | 0.00 | 0.00 | 59 | 1005.2 | |
| 20260505190056 | 87 | 0.0 | 0.0 | 0.00 | 0.00 | 0.00 | 63 | 1005.2 | |
| 20260505184553 | 86 | 0.0 | 0.0 | 0.00 | 0.00 | 0.00 | 62 | 1005.4 | |
| 20260505183053 | 86 | 0.0 | 0.0 | 0.00 | 0.00 | 0.00 | 64 | 1005.6 | |
| 20260505181548 | 85 | 0.0 | 0.0 | 0.00 | 0.00 | 0.00 | 63 | 1005.6 | |
| 20260505180054 | 85 | 0.0 | 0.0 | 0.00 | 0.00 | 0.00 | 64 | 1005.7 | |
| 20260505174546 | 85 | 0.0 | 0.0 | 0.00 | 0.00 | 0.00 | 64 | 1005.7 | |
| 20260505173048 | 85 | 0.0 | 0.0 | 0.00 | 0.00 | 0.00 | 65 | 1005.9 | |
| 20260505171547 | 84 | 0.0 | 0.0 | 0.00 | 0.00 | 0.00 | 66 | 1005.8 | |
| 20260505170040 | 84 | 0.0 | 0.0 | 0.00 | 0.00 | 0.00 | 67 | 1005.7 | |
| 20260505164538 | 83 | 0.0 | 0.0 | 0.00 | 0.00 | 0.00 | 69 | 1006.0 | |
| 20260505163036 | 82 | 0.0 | 0.0 | 0.00 | 0.00 | 0.00 | 69 | 1005.8 | |
| 20260505161533 | 81 | 0.0 | 0.0 | 0.00 | 0.00 | 0.00 | 71 | 1005.8 | |
| 20260505153025 | 79 | 0.0 | 0.0 | 0.00 | 0.00 | 0.00 | 74 | 1005.8 | |
| 20260505151521 | 77 | 0.0 | 0.0 | 0.00 | 0.00 | 0.00 | 77 | 1005.7 | |
| 20260505124503 | 71 | 0.0 | 0.0 | 0.00 | 0.00 | 0.00 | 85 | 1005.3 | |
| 20260505123104 | 71 | 0.0 | 0.0 | 0.00 | 0.00 | 0.00 | 85 | 1005.3 | |
| 20260505121624 | 71 | 0.0 | 0.0 | 0.00 | 0.00 | 0.00 | 85 | 1004.8 | |
| 20260505120054 | 71 | 0.0 | 0.0 | 0.00 | 0.00 | 0.00 | 85 | 1004.8 | |
| 20260505114552 | 71 | 0.0 | 0.0 | 0.00 | 0.00 | 0.00 | 84 | 1004.6 | |
| 20260505113055 | 71 | 0.0 | 0.0 | 0.00 | 0.00 | 0.00 | 84 | 1004.6 | |
| 20260505111553 | 71 | 0.0 | 0.0 | 0.00 | 0.00 | 0.00 | 84 | 1004.4 | |
| 20260505101546 | 72 | 0.0 | 0.0 | 0.00 | 0.00 | 0.00 | 83 | 1004.5 | |
| 20260505100108 | 72 | 0.0 | 0.0 | 0.00 | 0.00 | 0.00 | 83 | 1004.8 | |
| 20260505094545 | 72 | 0.0 | 0.0 | 0.00 | 0.00 | 0.00 | 83 | 1004.6 | |
| 20260505093042 | 72 | 0.0 | 0.0 | 0.00 | 0.00 | 0.00 | 83 | 1004.7 | |
| 20260505091555 | 72 | 0.0 | 0.0 | 0.00 | 0.00 | 0.00 | 82 | 1004.9 | |
| 20260505090054 | 72 | 0.0 | 0.0 | 0.00 | 0.00 | 0.00 | 82 | 1005.1 | |
| 20260505084539 | 72 | 0.0 | 0.0 | 0.00 | 0.00 | 0.00 | 82 | 1005.0 | |
| 20260505083047 | 72 | 0.0 | 0.0 | 0.00 | 0.00 | 0.00 | 81 | 1005.0 | |
| 20260505081542 | 72 | 0.0 | 0.0 | 0.00 | 0.00 | 0.00 | 81 | 1005.0 | |
| 20260505080045 | 73 | 0.0 | 0.0 | 0.00 | 0.00 | 0.00 | 80 | 1005.1 | |
| 20260505074533 | 73 | 0.0 | 0.0 | 0.00 | 0.00 | 0.00 | 79 | 1005.5 | |
| 20260505073031 | 73 | 0.0 | 0.0 | 0.00 | 0.00 | 0.00 | 79 | 1005.7 | |
| 20260505071537 | 74 | 0.0 | 0.0 | 0.00 | 0.00 | 0.00 | 78 | 1006.0 | |
| 20260505070029 | 74 | 0.0 | 0.0 | 0.00 | 0.00 | 0.00 | 77 | 1006.4 | |
| 20260505064526 | 74 | 0.0 | 0.0 | 0.00 | 0.00 | 0.00 | 76 | 1006.4 | |
| 20260505063033 | 74 | 0.0 | 0.0 | 0.00 | 0.00 | 0.00 | 75 | 1006.6 | |
| 20260505061532 | 75 | 0.0 | 0.0 | 0.00 | 0.00 | 0.00 | 74 | 1006.5 | |
| 20260505060023 | 75 | 0.0 | 0.0 | 0.00 | 0.00 | 0.00 | 74 | 1006.5 | |
| 20260505054529 | 75 | 0.0 | 0.0 | 0.00 | 0.00 | 0.00 | 73 | 1006.4 | |
| 20260505053018 | 75 | 0.0 | 0.0 | 0.00 | 0.00 | 0.00 | 73 | 1006.6 | |
| 20260505051532 | 75 | 0.0 | 0.0 | 0.00 | 0.00 | 0.00 | 73 | 1006.7 | |
| 20260505041513 | 75 | 0.0 | 0.0 | 0.00 | 0.00 | 0.00 | 71 | 1006.8 | |
| 20260505040014 | 76 | 0.0 | 0.0 | 0.00 | 0.00 | 0.00 | 71 | 1006.9 | |
| 20260505034512 | 76 | 0.0 | 0.0 | 0.00 | 0.00 | 0.00 | 70 | 1006.9 | |
| 20260505033012 | 76 | 0.0 | 0.0 | 0.00 | 0.00 | 0.00 | 70 | 1006.7 | |
| 20260505031523 | 76 | 0.0 | 0.0 | 0.00 | 0.00 | 0.00 | 70 | 1007.0 | |
| 20260505030012 | 76 | 0.0 | 0.0 | 0.00 | 0.00 | 0.00 | 69 | 1007.0 | |
| 20260505024510 | 76 | 0.0 | 0.0 | 0.00 | 0.00 | 0.00 | 69 | 1007.0 | |
| 20260505023009 | 77 | 0.0 | 0.0 | 0.00 | 0.00 | 0.00 | 68 | 1007.1 | |
| 20260505021509 | 77 | 0.0 | 0.0 | 0.00 | 0.00 | 0.00 | 68 | 1006.8 | |
| 20260505020009 | 77 | 0.0 | 0.0 | 0.00 | 0.00 | 0.00 | 67 | 1006.8 | |
| 20260505014514 | 77 | 0.0 | 0.0 | 0.00 | 0.00 | 0.00 | 67 | 1006.8 | |
| 20260505013010 | 77 | 0.0 | 0.0 | 0.00 | 0.00 | 0.00 | 66 | 1006.9 | |
| 20260505011509 | 78 | 0.0 | 0.0 | 0.00 | 0.00 | 0.00 | 66 | 1006.8 | |
| 20260505010013 | 78 | 0.0 | 0.0 | 0.00 | 0.00 | 0.00 | 65 | 1006.7 | |
| 20260505004506 | 79 | 0.0 | 0.0 | 0.00 | 0.00 | 0.00 | 64 | 1006.8 | |
| 20260505003004 | 79 | 0.0 | 0.0 | 0.00 | 0.00 | 0.00 | 63 | 1007.0 | |
| 20260505001505 | 80 | 0.0 | 0.0 | 0.00 | 0.00 | 0.00 | 63 | 1006.9 | |
| 20260505000003 | 80 | 0.0 | 0.0 | 0.00 | 0.00 | 0.00 | 62 | 1007.1 | |
| 20260504234502 | 80 | 0.0 | 0.0 | 0.00 | 0.00 | 0.00 | 62 | 1007.2 | |
| 20260504233001 | 80 | 0.0 | 0.0 | 0.00 | 0.00 | 0.00 | 61 | 1007.2 | |
| 20260504231600 | 81 | 0.0 | 0.0 | 0.00 | 0.00 | 0.00 | 61 | 1007.3 |